Prachuap Khirikhan, Thailand
Current Conditions -  °F | °C
As of 6:00 PM on Friday 19 Dec 2014 (Local Time) from VTBU Reporting Station
Haze Haze  
Wind Chill: 81°   Ceiling: Unl
Heat Index: 82°   Visibility: 3mi
Dew Point: 63°   Wind: 3mph
Humidity: 54%   Direction: 20°NNE
Pressure: 29.91"   Gusts: NA
Location:  11.83°N, 99.83°E
Report Text: VTBU 191100Z 02003KT 5000 HZ NSC 27/17 Q1013 A2992
Loading
Personal Weather Stations






























Interactive Weather Map New forecast layout! Learn more

10-Day Weather Forecast

Advertisements
Track Severe Weather on mobile